sensor_id;sensor_type;location;lat;lon;timestamp;P1;durP1;ratioP1;P2;durP2;ratioP2
52342;SDS011;38277;51.972;4.624;2022-11-14T00:00:31;13.4;;;8.3;;
52342;SDS011;38277;51.972;4.624;2022-11-14T00:05:07;15.6;;;8.9;;
52342;SDS011;38277;51.972;4.624;2022-11-14T00:09:40;15.7;;;9.0;;
52342;SDS011;38277;51.972;4.624;2022-11-14T00:14:10;16.6;;;9.8;;
52342;SDS011;38277;51.972;4.624;2022-11-14T00:18:48;15.1;;;9.3;;
52342;SDS011;38277;51.972;4.624;2022-11-14T00:27:46;17.5;;;9.6;;
52342;SDS011;38277;51.972;4.624;2022-11-14T00:32:25;16.2;;;9.0;;
52342;SDS011;38277;51.972;4.624;2022-11-14T00:36:21;20.0;;;10.1;;
52342;SDS011;38277;51.972;4.624;2022-11-14T00:41:01;16.4;;;10.0;;
52342;SDS011;38277;51.972;4.624;2022-11-14T00:45:35;15.8;;;9.6;;
52342;SDS011;38277;51.972;4.624;2022-11-14T00:50:15;16.1;;;9.3;;
52342;SDS011;38277;51.972;4.624;2022-11-14T00:54:30;15.1;;;8.4;;
52342;SDS011;38277;51.972;4.624;2022-11-14T00:59:18;13.7;;;7.9;;
52342;SDS011;38277;51.972;4.624;2022-11-14T01:03:36;14.9;;;8.9;;
52342;SDS011;38277;51.972;4.624;2022-11-14T01:08:16;15.8;;;9.3;;
52342;SDS011;38277;51.972;4.624;2022-11-14T01:12:32;15.3;;;9.2;;
52342;SDS011;38277;51.972;4.624;2022-11-14T01:17:09;17.4;;;10.1;;
52342;SDS011;38277;51.972;4.624;2022-11-14T01:21:28;15.0;;;9.3;;
52342;SDS011;38277;51.972;4.624;2022-11-14T01:26:14;16.5;;;9.8;;
52342;SDS011;38277;51.972;4.624;2022-11-14T01:30:26;15.7;;;9.1;;
52342;SDS011;38277;51.972;4.624;2022-11-14T01:35:05;14.5;;;8.4;;
52342;SDS011;38277;51.972;4.624;2022-11-14T01:39:27;18.2;;;10.1;;
52342;SDS011;38277;51.972;4.624;2022-11-14T01:43:56;15.7;;;9.4;;
52342;SDS011;38277;51.972;4.624;2022-11-14T01:48:50;16.9;;;9.9;;
52342;SDS011;38277;51.972;4.624;2022-11-14T01:52:59;15.3;;;8.8;;
52342;SDS011;38277;51.972;4.624;2022-11-14T01:57:37;15.5;;;9.3;;
52342;SDS011;38277;51.972;4.624;2022-11-14T02:02:12;17.8;;;10.0;;
52342;SDS011;38277;51.972;4.624;2022-11-14T02:06:22;14.9;;;8.9;;
52342;SDS011;38277;51.972;4.624;2022-11-14T02:11:04;17.1;;;9.9;;
52342;SDS011;38277;51.972;4.624;2022-11-14T02:15:31;17.2;;;9.5;;
52342;SDS011;38277;51.972;4.624;2022-11-14T02:24:36;17.7;;;9.7;;
52342;SDS011;38277;51.972;4.624;2022-11-14T02:28:53;18.2;;;10.0;;
52342;SDS011;38277;51.972;4.624;2022-11-14T02:33:46;15.2;;;9.2;;
52342;SDS011;38277;51.972;4.624;2022-11-14T02:42:20;17.2;;;9.2;;
52342;SDS011;38277;51.972;4.624;2022-11-14T03:00:38;16.9;;;9.9;;
52342;SDS011;38277;51.972;4.624;2022-11-14T03:14:05;19.5;;;11.1;;
52342;SDS011;38277;51.972;4.624;2022-11-14T03:18:33;21.6;;;12.6;;
52342;SDS011;38277;51.972;4.624;2022-11-14T03:23:12;19.7;;;11.3;;
52342;SDS011;38277;51.972;4.624;2022-11-14T03:28:07;18.1;;;10.2;;
52342;SDS011;38277;51.972;4.624;2022-11-14T03:32:06;22.0;;;11.8;;
52342;SDS011;38277;51.972;4.624;2022-11-14T03:36:21;18.8;;;10.8;;
52342;SDS011;38277;51.972;4.624;2022-11-14T03:41:18;19.6;;;11.6;;
52342;SDS011;38277;51.972;4.624;2022-11-14T03:45:44;19.6;;;10.9;;
52342;SDS011;38277;51.972;4.624;2022-11-14T03:49:53;19.7;;;10.6;;
52342;SDS011;38277;51.972;4.624;2022-11-14T04:04:13;20.3;;;12.3;;
52342;SDS011;38277;51.972;4.624;2022-11-14T04:07:49;19.3;;;11.4;;
52342;SDS011;38277;51.972;4.624;2022-11-14T04:12:22;19.0;;;12.1;;
52342;SDS011;38277;51.972;4.624;2022-11-14T04:16:55;20.2;;;11.3;;
52342;SDS011;38277;51.972;4.624;2022-11-14T04:26:13;20.5;;;12.2;;
52342;SDS011;38277;51.972;4.624;2022-11-14T04:30:30;24.7;;;14.1;;
52342;SDS011;38277;51.972;4.624;2022-11-14T04:34:56;25.1;;;13.5;;
52342;SDS011;38277;51.972;4.624;2022-11-14T04:39:50;23.1;;;13.3;;
52342;SDS011;38277;51.972;4.624;2022-11-14T04:44:40;24.0;;;14.3;;
52342;SDS011;38277;51.972;4.624;2022-11-14T04:48:22;25.5;;;14.0;;
52342;SDS011;38277;51.972;4.624;2022-11-14T04:53:21;24.0;;;14.1;;
52342;SDS011;38277;51.972;4.624;2022-11-14T04:57:42;25.4;;;15.4;;
52342;SDS011;38277;51.972;4.624;2022-11-14T05:01:50;24.1;;;14.1;;
52342;SDS011;38277;51.972;4.624;2022-11-14T05:06:47;23.6;;;14.1;;
52342;SDS011;38277;51.972;4.624;2022-11-14T05:10:49;26.7;;;15.0;;
52342;SDS011;38277;51.972;4.624;2022-11-14T05:15:35;28.7;;;16.3;;
52342;SDS011;38277;51.972;4.624;2022-11-14T05:19:50;30.2;;;17.7;;
52342;SDS011;38277;51.972;4.624;2022-11-14T05:24:54;26.6;;;15.6;;
52342;SDS011;38277;51.972;4.624;2022-11-14T05:29:20;28.3;;;17.2;;
52342;SDS011;38277;51.972;4.624;2022-11-14T05:33:31;28.3;;;15.6;;
52342;SDS011;38277;51.972;4.624;2022-11-14T05:38:13;28.3;;;16.9;;
52342;SDS011;38277;51.972;4.624;2022-11-14T05:42:45;29.5;;;17.6;;
52342;SDS011;38277;51.972;4.624;2022-11-14T05:46:50;27.2;;;16.1;;
52342;SDS011;38277;51.972;4.624;2022-11-14T05:51:20;27.1;;;16.7;;
52342;SDS011;38277;51.972;4.624;2022-11-14T05:55:59;27.9;;;16.3;;
52342;SDS011;38277;51.972;4.624;2022-11-14T06:04:52;31.7;;;17.4;;
52342;SDS011;38277;51.972;4.624;2022-11-14T06:10:09;30.5;;;17.8;;
52342;SDS011;38277;51.972;4.624;2022-11-14T06:14:10;33.9;;;19.1;;
52342;SDS011;38277;51.972;4.624;2022-11-14T06:18:40;34.6;;;18.7;;
52342;SDS011;38277;51.972;4.624;2022-11-14T06:22:52;28.4;;;16.6;;
52342;SDS011;38277;51.972;4.624;2022-11-14T06:27:45;28.8;;;17.7;;
52342;SDS011;38277;51.972;4.624;2022-11-14T06:31:58;26.8;;;16.5;;
52342;SDS011;38277;51.972;4.624;2022-11-14T06:36:25;30.5;;;17.2;;
52342;SDS011;38277;51.972;4.624;2022-11-14T06:41:14;29.2;;;17.1;;
52342;SDS011;38277;51.972;4.624;2022-11-14T06:46:05;28.3;;;17.5;;
52342;SDS011;38277;51.972;4.624;2022-11-14T06:49:49;30.1;;;16.6;;
52342;SDS011;38277;51.972;4.624;2022-11-14T06:54:29;32.9;;;19.3;;
52342;SDS011;38277;51.972;4.624;2022-11-14T06:59:15;31.7;;;18.3;;
52342;SDS011;38277;51.972;4.624;2022-11-14T07:03:51;31.5;;;17.9;;
52342;SDS011;38277;51.972;4.624;2022-11-14T07:07:49;33.4;;;18.2;;
52342;SDS011;38277;51.972;4.624;2022-11-14T07:12:44;30.4;;;18.0;;
52342;SDS011;38277;51.972;4.624;2022-11-14T07:16:55;30.0;;;17.6;;
52342;SDS011;38277;51.972;4.624;2022-11-14T07:21:40;28.8;;;17.4;;
52342;SDS011;38277;51.972;4.624;2022-11-14T07:25:59;31.9;;;17.2;;
52342;SDS011;38277;51.972;4.624;2022-11-14T07:34:59;28.6;;;16.2;;
52342;SDS011;38277;51.972;4.624;2022-11-14T07:39:21;29.7;;;16.9;;
52342;SDS011;38277;51.972;4.624;2022-11-14T07:43:49;29.1;;;16.6;;
52342;SDS011;38277;51.972;4.624;2022-11-14T07:53:03;28.9;;;16.5;;
52342;SDS011;38277;51.972;4.624;2022-11-14T07:57:51;27.9;;;15.9;;
52342;SDS011;38277;51.972;4.624;2022-11-14T08:01:56;29.7;;;16.9;;
52342;SDS011;38277;51.972;4.624;2022-11-14T08:06:45;30.7;;;17.4;;
52342;SDS011;38277;51.972;4.624;2022-11-14T08:11:38;31.2;;;17.7;;
52342;SDS011;38277;51.972;4.624;2022-11-14T08:24:42;28.9;;;17.0;;
52342;SDS011;38277;51.972;4.624;2022-11-14T08:29:18;30.0;;;17.6;;
52342;SDS011;38277;51.972;4.624;2022-11-14T08:33:24;28.9;;;17.0;;
52342;SDS011;38277;51.972;4.624;2022-11-14T08:38:14;32.4;;;17.9;;
52342;SDS011;38277;51.972;4.624;2022-11-14T08:42:30;30.1;;;17.6;;
52342;SDS011;38277;51.972;4.624;2022-11-14T08:51:52;27.1;;;16.0;;
52342;SDS011;38277;51.972;4.624;2022-11-14T08:56:14;29.2;;;17.1;;
52342;SDS011;38277;51.972;4.624;2022-11-14T09:00:45;25.1;;;15.1;;
52342;SDS011;38277;51.972;4.624;2022-11-14T09:05:20;27.2;;;16.2;;
52342;SDS011;38277;51.972;4.624;2022-11-14T09:09:20;24.0;;;14.6;;
52342;SDS011;38277;51.972;4.624;2022-11-14T09:14:19;23.0;;;12.6;;
52342;SDS011;38277;51.972;4.624;2022-11-14T09:18:46;21.3;;;12.9;;
52342;SDS011;38277;51.972;4.624;2022-11-14T09:22:53;21.0;;;12.8;;
52342;SDS011;38277;51.972;4.624;2022-11-14T09:27:42;20.5;;;12.3;;
52342;SDS011;38277;51.972;4.624;2022-11-14T09:36:45;22.4;;;12.8;;
52342;SDS011;38277;51.972;4.624;2022-11-14T09:41:23;19.0;;;12.3;;
52342;SDS011;38277;51.972;4.624;2022-11-14T09:45:47;24.0;;;14.1;;
52342;SDS011;38277;51.972;4.624;2022-11-14T09:49:53;19.4;;;11.6;;
52342;SDS011;38277;51.972;4.624;2022-11-14T09:54:27;20.6;;;11.5;;
52342;SDS011;38277;51.972;4.624;2022-11-14T09:59:08;18.7;;;11.0;;
52342;SDS011;38277;51.972;4.624;2022-11-14T10:03:32;17.1;;;9.9;;
52342;SDS011;38277;51.972;4.624;2022-11-14T10:08:50;21.0;;;12.4;;
52342;SDS011;38277;51.972;4.624;2022-11-14T10:13:30;21.0;;;12.0;;
52342;SDS011;38277;51.972;4.624;2022-11-14T10:17:49;20.7;;;12.7;;
52342;SDS011;38277;51.972;4.624;2022-11-14T10:22:05;21.6;;;11.2;;
52342;SDS011;38277;51.972;4.624;2022-11-14T10:26:26;18.6;;;10.1;;
52342;SDS011;38277;51.972;4.624;2022-11-14T10:35:27;17.7;;;10.6;;
52342;SDS011;38277;51.972;4.624;2022-11-14T10:39:45;19.4;;;10.3;;
52342;SDS011;38277;51.972;4.624;2022-11-14T10:43:51;15.9;;;9.2;;
52342;SDS011;38277;51.972;4.624;2022-11-14T10:52:59;19.7;;;10.7;;
52342;SDS011;38277;51.972;4.624;2022-11-14T10:57:38;18.4;;;10.5;;
52342;SDS011;38277;51.972;4.624;2022-11-14T11:02:08;17.5;;;10.1;;
52342;SDS011;38277;51.972;4.624;2022-11-14T11:11:06;18.3;;;9.9;;
52342;SDS011;38277;51.972;4.624;2022-11-14T11:15:23;19.7;;;11.4;;
52342;SDS011;38277;51.972;4.624;2022-11-14T11:20:26;15.9;;;9.0;;
52342;SDS011;38277;51.972;4.624;2022-11-14T11:24:31;15.4;;;9.3;;
52342;SDS011;38277;51.972;4.624;2022-11-14T11:29:00;16.2;;;9.3;;
52342;SDS011;38277;51.972;4.624;2022-11-14T11:33:48;25.6;;;9.4;;
52342;SDS011;38277;51.972;4.624;2022-11-14T11:38:10;14.7;;;8.8;;
52342;SDS011;38277;51.972;4.624;2022-11-14T11:42:42;19.5;;;10.2;;
52342;SDS011;38277;51.972;4.624;2022-11-14T11:46:56;17.5;;;9.7;;
52342;SDS011;38277;51.972;4.624;2022-11-14T11:51:23;16.5;;;9.5;;
52342;SDS011;38277;51.972;4.624;2022-11-14T11:55:58;17.0;;;10.0;;
52342;SDS011;38277;51.972;4.624;2022-11-14T12:00:28;19.5;;;9.6;;
52342;SDS011;38277;51.972;4.624;2022-11-14T12:05:23;17.3;;;10.8;;
52342;SDS011;38277;51.972;4.624;2022-11-14T12:09:27;17.6;;;10.0;;
52342;SDS011;38277;51.972;4.624;2022-11-14T12:20:29;15.7;;;9.2;;
52342;SDS011;38277;51.972;4.624;2022-11-14T12:25:45;14.3;;;8.4;;
52342;SDS011;38277;51.972;4.624;2022-11-14T12:30:20;17.8;;;10.3;;
52342;SDS011;38277;51.972;4.624;2022-11-14T12:32:12;17.8;;;9.7;;
52342;SDS011;38277;51.972;4.624;2022-11-14T12:36:33;19.2;;;10.8;;
52342;SDS011;38277;51.972;4.624;2022-11-14T12:41:04;17.0;;;9.5;;
52342;SDS011;38277;51.972;4.624;2022-11-14T12:45:56;16.6;;;9.1;;
52342;SDS011;38277;51.972;4.624;2022-11-14T12:50:42;15.3;;;9.0;;
52342;SDS011;38277;51.972;4.624;2022-11-14T12:54:44;16.5;;;9.4;;
52342;SDS011;38277;51.972;4.624;2022-11-14T12:59:20;16.5;;;9.6;;
52342;SDS011;38277;51.972;4.624;2022-11-14T13:04:15;15.3;;;9.2;;
52342;SDS011;38277;51.972;4.624;2022-11-14T13:08:28;15.2;;;8.3;;
52342;SDS011;38277;51.972;4.624;2022-11-14T13:12:32;17.3;;;9.2;;
52342;SDS011;38277;51.972;4.624;2022-11-14T13:17:15;14.8;;;8.3;;
52342;SDS011;38277;51.972;4.624;2022-11-14T13:31:17;15.3;;;9.7;;
52342;SDS011;38277;51.972;4.624;2022-11-14T13:35:32;15.8;;;9.1;;
52342;SDS011;38277;51.972;4.624;2022-11-14T13:40:23;16.0;;;8.9;;
52342;SDS011;38277;51.972;4.624;2022-11-14T13:45:51;15.6;;;9.2;;
52342;SDS011;38277;51.972;4.624;2022-11-14T13:50:41;15.9;;;8.6;;
52342;SDS011;38277;51.972;4.624;2022-11-14T13:52:58;15.4;;;8.9;;
52342;SDS011;38277;51.972;4.624;2022-11-14T14:13:01;13.4;;;8.0;;
52342;SDS011;38277;51.972;4.624;2022-11-14T14:26:59;16.3;;;9.3;;
52342;SDS011;38277;51.972;4.624;2022-11-14T14:30:21;19.4;;;10.3;;
52342;SDS011;38277;51.972;4.624;2022-11-14T14:37:53;17.6;;;9.6;;
52342;SDS011;38277;51.972;4.624;2022-11-14T14:42:44;16.5;;;9.6;;
52342;SDS011;38277;51.972;4.624;2022-11-14T14:47:15;19.1;;;10.6;;
52342;SDS011;38277;51.972;4.624;2022-11-14T14:51:47;18.6;;;10.2;;
52342;SDS011;38277;51.972;4.624;2022-11-14T14:56:18;18.8;;;10.8;;
52342;SDS011;38277;51.972;4.624;2022-11-14T15:00:31;15.6;;;9.5;;
52342;SDS011;38277;51.972;4.624;2022-11-14T15:05:25;17.9;;;10.6;;
52342;SDS011;38277;51.972;4.624;2022-11-14T15:10:28;18.5;;;10.5;;
52342;SDS011;38277;51.972;4.624;2022-11-14T15:14:21;18.1;;;11.2;;
52342;SDS011;38277;51.972;4.624;2022-11-14T15:18:38;16.7;;;10.6;;
52342;SDS011;38277;51.972;4.624;2022-11-14T15:23:19;17.8;;;10.2;;
52342;SDS011;38277;51.972;4.624;2022-11-14T15:27:26;19.7;;;11.1;;
52342;SDS011;38277;51.972;4.624;2022-11-14T15:32:15;21.4;;;13.8;;
52342;SDS011;38277;51.972;4.624;2022-11-14T15:36:19;30.0;;;19.5;;
52342;SDS011;38277;51.972;4.624;2022-11-14T15:41:23;31.0;;;20.4;;
52342;SDS011;38277;51.972;4.624;2022-11-14T15:49:59;31.9;;;21.1;;
52342;SDS011;38277;51.972;4.624;2022-11-14T15:54:42;34.0;;;23.5;;
52342;SDS011;38277;51.972;4.624;2022-11-14T15:59:09;31.9;;;21.2;;
52342;SDS011;38277;51.972;4.624;2022-11-14T16:03:55;33.1;;;21.5;;
52342;SDS011;38277;51.972;4.624;2022-11-14T16:07:49;33.2;;;21.6;;
52342;SDS011;38277;51.972;4.624;2022-11-14T16:12:42;34.9;;;22.8;;
52342;SDS011;38277;51.972;4.624;2022-11-14T16:16:58;37.1;;;23.5;;
52342;SDS011;38277;51.972;4.624;2022-11-14T16:22:14;44.9;;;23.5;;
52342;SDS011;38277;51.972;4.624;2022-11-14T16:26:10;38.9;;;24.9;;
52342;SDS011;38277;51.972;4.624;2022-11-14T16:30:45;40.7;;;24.4;;
52342;SDS011;38277;51.972;4.624;2022-11-14T16:35:01;35.0;;;22.7;;
52342;SDS011;38277;51.972;4.624;2022-11-14T16:43:57;34.6;;;21.4;;
52342;SDS011;38277;51.972;4.624;2022-11-14T16:48:23;35.5;;;22.8;;
52342;SDS011;38277;51.972;4.624;2022-11-14T16:53:07;32.4;;;21.0;;
52342;SDS011;38277;51.972;4.624;2022-11-14T16:57:36;35.8;;;21.8;;
52342;SDS011;38277;51.972;4.624;2022-11-14T17:01:50;36.3;;;21.8;;
52342;SDS011;38277;51.972;4.624;2022-11-14T17:06:43;39.0;;;23.1;;
52342;SDS011;38277;51.972;4.624;2022-11-14T17:11:12;35.3;;;22.9;;
52342;SDS011;38277;51.972;4.624;2022-11-14T17:19:51;35.7;;;23.4;;
52342;SDS011;38277;51.972;4.624;2022-11-14T17:24:34;36.9;;;22.8;;
52342;SDS011;38277;51.972;4.624;2022-11-14T17:29:13;34.8;;;22.0;;
52342;SDS011;38277;51.972;4.624;2022-11-14T17:37:52;32.1;;;20.2;;
52342;SDS011;38277;51.972;4.624;2022-11-14T17:42:48;31.7;;;20.7;;
52342;SDS011;38277;51.972;4.624;2022-11-14T17:47:07;34.3;;;20.9;;
52342;SDS011;38277;51.972;4.624;2022-11-14T17:51:43;31.5;;;19.9;;
52342;SDS011;38277;51.972;4.624;2022-11-14T17:55:53;29.7;;;18.5;;
52342;SDS011;38277;51.972;4.624;2022-11-14T18:00:43;31.5;;;18.6;;
52342;SDS011;38277;51.972;4.624;2022-11-14T18:05:11;30.8;;;17.9;;
52342;SDS011;38277;51.972;4.624;2022-11-14T18:09:34;29.2;;;18.8;;
52342;SDS011;38277;51.972;4.624;2022-11-14T18:13:55;29.9;;;18.4;;
52342;SDS011;38277;51.972;4.624;2022-11-14T18:22:57;27.5;;;16.8;;
52342;SDS011;38277;51.972;4.624;2022-11-14T18:27:44;28.0;;;16.3;;
52342;SDS011;38277;51.972;4.624;2022-11-14T18:32:02;27.5;;;17.9;;
52342;SDS011;38277;51.972;4.624;2022-11-14T18:36:33;26.0;;;16.3;;
52342;SDS011;38277;51.972;4.624;2022-11-14T18:40:52;27.3;;;16.4;;
52342;SDS011;38277;51.972;4.624;2022-11-14T18:45:33;28.3;;;17.5;;
52342;SDS011;38277;51.972;4.624;2022-11-14T18:50:15;31.7;;;18.6;;
52342;SDS011;38277;51.972;4.624;2022-11-14T18:54:34;32.5;;;21.8;;
52342;SDS011;38277;51.972;4.624;2022-11-14T18:59:18;38.6;;;25.3;;
52342;SDS011;38277;51.972;4.624;2022-11-14T19:03:20;40.7;;;27.4;;
52342;SDS011;38277;51.972;4.624;2022-11-14T19:07:55;42.0;;;28.5;;
52342;SDS011;38277;51.972;4.624;2022-11-14T19:12:34;42.0;;;27.7;;
52342;SDS011;38277;51.972;4.624;2022-11-14T19:16:50;41.5;;;26.9;;
52342;SDS011;38277;51.972;4.624;2022-11-14T19:21:48;39.5;;;25.6;;
52342;SDS011;38277;51.972;4.624;2022-11-14T19:26:10;38.5;;;23.9;;
52342;SDS011;38277;51.972;4.624;2022-11-14T19:30:27;34.7;;;22.3;;
52342;SDS011;38277;51.972;4.624;2022-11-14T19:35:14;36.7;;;24.4;;
52342;SDS011;38277;51.972;4.624;2022-11-14T19:39:23;36.4;;;23.0;;
52342;SDS011;38277;51.972;4.624;2022-11-14T19:48:41;38.2;;;23.8;;
52342;SDS011;38277;51.972;4.624;2022-11-14T19:52:50;36.7;;;23.6;;
52342;SDS011;38277;51.972;4.624;2022-11-14T19:57:41;39.2;;;24.6;;
52342;SDS011;38277;51.972;4.624;2022-11-14T20:02:16;42.0;;;26.7;;
52342;SDS011;38277;51.972;4.624;2022-11-14T20:11:19;41.4;;;25.4;;
52342;SDS011;38277;51.972;4.624;2022-11-14T20:15:31;39.5;;;23.0;;
52342;SDS011;38277;51.972;4.624;2022-11-14T20:24:40;41.9;;;23.9;;
52342;SDS011;38277;51.972;4.624;2022-11-14T20:28:57;35.6;;;22.5;;
52342;SDS011;38277;51.972;4.624;2022-11-14T20:33:47;36.9;;;22.8;;
52342;SDS011;38277;51.972;4.624;2022-11-14T20:38:11;36.3;;;22.6;;
52342;SDS011;38277;51.972;4.624;2022-11-14T20:42:36;41.5;;;24.0;;
52342;SDS011;38277;51.972;4.624;2022-11-14T20:47:15;38.9;;;23.5;;
52342;SDS011;38277;51.972;4.624;2022-11-14T20:51:48;38.8;;;25.0;;
52342;SDS011;38277;51.972;4.624;2022-11-14T20:56:12;42.1;;;25.1;;
52342;SDS011;38277;51.972;4.624;2022-11-14T21:00:19;41.8;;;24.5;;
52342;SDS011;38277;51.972;4.624;2022-11-14T21:04:52;46.0;;;25.6;;
52342;SDS011;38277;51.972;4.624;2022-11-14T21:09:25;43.3;;;26.8;;
52342;SDS011;38277;51.972;4.624;2022-11-14T21:13:51;41.1;;;23.8;;
52342;SDS011;38277;51.972;4.624;2022-11-14T21:18:36;41.8;;;25.0;;
52342;SDS011;38277;51.972;4.624;2022-11-14T21:22:50;38.4;;;23.4;;
52342;SDS011;38277;51.972;4.624;2022-11-14T21:27:19;41.4;;;23.5;;
52342;SDS011;38277;51.972;4.624;2022-11-14T21:32:16;37.1;;;22.5;;
52342;SDS011;38277;51.972;4.624;2022-11-14T21:36:37;36.6;;;21.7;;
52342;SDS011;38277;51.972;4.624;2022-11-14T21:45:53;39.6;;;23.9;;
52342;SDS011;38277;51.972;4.624;2022-11-14T21:50:05;39.4;;;22.0;;
52342;SDS011;38277;51.972;4.624;2022-11-14T21:54:36;37.0;;;22.0;;
52342;SDS011;38277;51.972;4.624;2022-11-14T21:59:12;44.7;;;24.7;;
52342;SDS011;38277;51.972;4.624;2022-11-14T22:03:33;36.2;;;22.4;;
52342;SDS011;38277;51.972;4.624;2022-11-14T22:08:04;43.2;;;25.0;;
52342;SDS011;38277;51.972;4.624;2022-11-14T22:12:28;37.5;;;22.1;;
52342;SDS011;38277;51.972;4.624;2022-11-14T22:21:47;43.2;;;25.4;;
52342;SDS011;38277;51.972;4.624;2022-11-14T22:26:02;44.1;;;24.5;;
52342;SDS011;38277;51.972;4.624;2022-11-14T22:30:20;47.1;;;26.4;;
52342;SDS011;38277;51.972;4.624;2022-11-14T22:35:08;45.3;;;26.3;;
52342;SDS011;38277;51.972;4.624;2022-11-14T22:40:12;45.5;;;27.2;;
52342;SDS011;38277;51.972;4.624;2022-11-14T22:44:01;49.4;;;25.4;;
52342;SDS011;38277;51.972;4.624;2022-11-14T22:48:34;45.0;;;26.2;;
52342;SDS011;38277;51.972;4.624;2022-11-14T22:53:14;55.0;;;29.7;;
52342;SDS011;38277;51.972;4.624;2022-11-14T22:58:12;46.9;;;26.0;;
52342;SDS011;38277;51.972;4.624;2022-11-14T23:02:10;51.3;;;27.3;;
52342;SDS011;38277;51.972;4.624;2022-11-14T23:07:10;51.0;;;28.7;;
52342;SDS011;38277;51.972;4.624;2022-11-14T23:11:16;48.2;;;27.0;;
52342;SDS011;38277;51.972;4.624;2022-11-14T23:16:13;48.6;;;26.2;;
52342;SDS011;38277;51.972;4.624;2022-11-14T23:19:52;42.1;;;25.1;;
52342;SDS011;38277;51.972;4.624;2022-11-14T23:24:25;47.2;;;26.8;;
52342;SDS011;38277;51.972;4.624;2022-11-14T23:28:55;46.3;;;25.9;;
52342;SDS011;38277;51.972;4.624;2022-11-14T23:37:52;48.4;;;26.9;;
52342;SDS011;38277;51.972;4.624;2022-11-14T23:42:22;50.8;;;27.9;;
52342;SDS011;38277;51.972;4.624;2022-11-14T23:47:07;48.6;;;27.1;;
52342;SDS011;38277;51.972;4.624;2022-11-14T23:52:07;52.0;;;28.8;;
52342;SDS011;38277;51.972;4.624;2022-11-14T23:56:09;52.6;;;27.0;;
